Detall de PIREP

Printer-friendly versionPDF version

[2012/09/13 10:48:00]
Flight IATA:CT3227
Pilot Number:042
Company ICAO:CAT
Aircraft Type:MD11/E
PAX:303
Aircraft Registration:PAX
Departing Airport: EGLL
Destination Airport: LEPA
Alternate Airport:LEBL
Online: VATSIM
Route:MID UL151 SITET UN859 BCN UZ167 LORES
Flight Level:F370
No Slew and time accel
No pause
Crash detect
Detect pilot in Cockpit between each 30 and 45 minutes
10:48 Zero fuel Weight: 377786 Lbs, Fuel Weight: 43232 Lbs
10:48 VATSIM:EGLL 131020Z 27008KT CAVOK 14/07 Q1021 NOSIG
10:48 VATSIM:LEPA 131030Z 28003G14KT 210V350 9999 FEW025 BKN045 22/14 Q1015 BECMG 26010KT
10:48 VOICE CATALONIAN
10:56 Parking Brakes off
11:05 Take-off
11:05 Take off Weight: 486423 Lbs
11:05 Wind: 274º @ 007 Knots Heading: 269º
11:05 POS N51º 27´ 53´´ W000º 28´ 08´´
11:05 Gear Up: 186 Knots
11:05 Flaps:5 at 186 Knots
11:10 Flaps:4 at 212 Knots
11:10 Flaps:3 at 212 Knots
11:10 Flaps:2 at 212 Knots
11:10 Flaps:3 at 213 Knots
11:10 Flaps:2 at 215 Knots
11:10 Flaps:1 at 216 Knots
11:10 Flaps:0 at 225 Knots
11:20 Wind:334º@075 Knots Heading: 156º Ground Speed: 528 Knots Altitude 26387 ft
11:35 Wind:359º@092 Knots Heading: 162º Ground Speed: 554 Knots Altitude 36200 ft
11:46 TOC
11:46 Fuel Weight: 90500 Lb
11:50 Wind:359º@077 Knots Heading: 170º Ground Speed: 543 Knots Altitude 37168 ft
12:05 Wind:359º@083 Knots Heading: 176º Ground Speed: 553 Knots Altitude 37142 ft
12:20 Wind:357º@080 Knots Heading: 145º Ground Speed: 544 Knots Altitude 36922 ft
12:23 TOD
12:23 Fuel Weight: 80999 Lb
12:35 Wind:338º@058 Knots Heading: 342º Ground Speed: 279 Knots Altitude 20767 ft
12:50 Wind:330º@016 Knots Heading: 330º Ground Speed: 253 Knots Altitude 6719 ft
12:51 Flaps:1 at 242 Knots
12:57 Flaps:2 at 243 Knots
12:57 Flaps:3 at 243 Knots
12:57Flaps:4 at 243 Knots
13:03 Flaps:5 at 182 Knots
13:03 Gear Down: 183 Knots
13:03 Flaps:4 at 183 Knots
13:03 Flaps:5 at 182 Knots
13:03 Flaps:6 at 182 Knots
13:05 Wind:306º@008 Knots Heading: 240º Ground Speed: 184 Knots Altitude 1794 ft
13:06 TouchDown:Rate -163 ft/min Speed: 173 Knots
13:06 Flaps:7 at 172 Knots
13:07 VATSIM:LEPA 131230Z 23009KT 190V260 9999 FEW025 SCT040 23/15 Q1014 NOSIG
13:07 Land
13:07 Wind:270º@009 Knots
13:07 Heading: 238º
13:07 Flight Duration: 02:02
13:07 Landing Weight: 449486 Lbs
13:07 POS N39º 32´ 48´´ E002º 44´ 36´´
13:11 Parking brakes on
13:11 Block to Block Duration: 02:15
13:11 Final Fuel: 71064 Lbls
13:11 Spent Fuel: 878679526 Lbls
13:11 Flight Length: 793 NM
13:11 TOD Land Length: 127 NM

Exportar CSV

Powered by Drupal - Modified by Danger4k